createdAt,value
2019-06-08T00:01:51.076Z,21.90
2019-06-08T00:04:20.747Z,21.80
2019-06-08T00:07:13.139Z,21.80
2019-06-08T00:09:42.607Z,21.70
2019-06-08T00:12:12.948Z,21.70
2019-06-08T00:14:42.472Z,21.70
2019-06-08T00:17:29.371Z,21.70
2019-06-08T00:19:57.144Z,21.70
2019-06-08T00:22:26.686Z,21.60
2019-06-08T00:24:56.224Z,21.60
2019-06-08T00:27:27.385Z,21.60
2019-06-08T00:29:56.967Z,21.50
2019-06-08T00:32:26.556Z,21.50
2019-06-08T00:34:56.082Z,21.50
2019-06-08T00:37:25.639Z,21.40
2019-06-08T00:39:55.350Z,21.40
2019-06-08T00:42:25.529Z,21.30
2019-06-08T00:45:06.066Z,21.30
2019-06-08T00:47:47.154Z,21.20
2019-06-08T00:50:04.006Z,21.10
2019-06-08T00:52:35.148Z,21.00
2019-06-08T00:55:06.079Z,21.00
2019-06-08T00:57:35.762Z,21.00
2019-06-08T01:00:10.586Z,20.90
2019-06-08T01:02:42.428Z,20.90
2019-06-08T01:05:13.873Z,20.80
2019-06-08T01:07:44.200Z,20.70
2019-06-08T01:10:15.388Z,20.70
2019-06-08T01:12:46.725Z,20.60
2019-06-08T01:15:16.643Z,20.60
2019-06-08T01:18:01.595Z,20.50
2019-06-08T01:20:17.647Z,20.50
2019-06-08T01:22:47.097Z,20.50
2019-06-08T01:25:16.700Z,20.40
2019-06-08T01:27:47.865Z,20.40
2019-06-08T01:30:17.809Z,20.40
2019-06-08T01:32:48.699Z,20.30
2019-06-08T01:35:18.231Z,20.30
2019-06-08T01:37:47.706Z,20.30
2019-06-08T01:40:17.215Z,20.20
2019-06-08T01:42:46.787Z,20.20
2019-06-08T01:45:33.112Z,20.20
2019-06-08T01:48:19.976Z,20.20
2019-06-08T01:50:40.719Z,20.10
2019-06-08T01:53:10.260Z,20.10
2019-06-08T01:55:39.797Z,20.10
2019-06-08T01:58:09.298Z,20.00
2019-06-08T02:00:41.471Z,20.00
2019-06-08T02:03:11.609Z,20.00
2019-06-08T02:05:41.391Z,20.00
2019-06-08T02:08:10.926Z,19.90
2019-06-08T02:10:40.504Z,19.90
2019-06-08T02:13:10.041Z,19.90
2019-06-08T02:15:39.652Z,19.90
2019-06-08T02:18:09.225Z,19.90
2019-06-08T02:20:39.383Z,19.90
2019-06-08T02:23:08.961Z,19.90
2019-06-08T02:25:39.600Z,19.90
2019-06-08T02:28:09.261Z,19.90
2019-06-08T02:30:41.871Z,19.90
2019-06-08T02:33:11.651Z,19.90
2019-06-08T02:35:41.769Z,20.00
2019-06-08T02:38:11.553Z,20.00
2019-06-08T02:40:41.217Z,20.00
2019-06-08T02:43:10.850Z,20.00
2019-06-08T02:45:40.618Z,20.00
2019-06-08T02:48:15.559Z,20.00
2019-06-08T02:50:53.394Z,20.00
2019-06-08T02:53:24.095Z,19.90
2019-06-08T02:55:54.366Z,19.90
2019-06-08T02:58:24.239Z,19.80
2019-06-08T03:00:58.104Z,19.70
2019-06-08T03:03:29.572Z,19.70
2019-06-08T03:06:02.154Z,19.60
2019-06-08T03:08:36.149Z,19.60
2019-06-08T03:11:09.862Z,19.60
2019-06-08T03:13:42.426Z,19.60
2019-06-08T03:16:13.445Z,19.50
2019-06-08T03:18:42.978Z,19.50
2019-06-08T03:21:12.471Z,19.40
2019-06-08T03:23:50.834Z,19.40
2019-06-08T03:26:20.515Z,19.40
2019-06-08T03:29:28.683Z,19.40
2019-06-08T03:31:57.142Z,19.30
2019-06-08T03:34:27.988Z,19.30
2019-06-08T03:36:57.880Z,19.30
2019-06-08T03:39:27.587Z,19.30
2019-06-08T03:41:57.143Z,19.20
2019-06-08T03:44:26.627Z,19.20
2019-06-08T03:46:56.207Z,19.20
2019-06-08T03:49:41.434Z,19.20
2019-06-08T03:52:08.711Z,19.20
2019-06-08T03:54:40.154Z,19.20
2019-06-08T03:57:14.923Z,19.20
2019-06-08T03:59:46.160Z,19.20
2019-06-08T04:02:17.135Z,19.20
2019-06-08T04:04:52.963Z,19.20
2019-06-08T04:07:22.452Z,19.20
2019-06-08T04:09:52.927Z,19.20
2019-06-08T04:12:23.055Z,19.20
2019-06-08T04:15:06.379Z,19.20
2019-06-08T04:17:29.848Z,19.20
2019-06-08T04:20:10.570Z,19.20
2019-06-08T04:22:33.133Z,19.20
2019-06-08T04:25:14.610Z,19.20
2019-06-08T04:27:44.759Z,19.20
2019-06-08T04:30:22.701Z,19.30
2019-06-08T04:32:59.972Z,19.30
2019-06-08T04:35:31.122Z,19.30
2019-06-08T04:38:00.622Z,19.30
2019-06-08T04:40:33.277Z,19.30
2019-06-08T04:43:03.883Z,19.40
2019-06-08T04:45:33.414Z,19.40
2019-06-08T04:48:03.206Z,19.50
2019-06-08T04:50:32.677Z,19.50
2019-06-08T04:53:10.730Z,19.60
2019-06-08T04:55:40.963Z,19.60
2019-06-08T04:58:12.019Z,19.70
2019-06-08T05:00:43.375Z,19.70
2019-06-08T05:03:18.487Z,19.70
2019-06-08T05:05:49.933Z,19.80
2019-06-08T05:08:18.958Z,19.90
2019-06-08T05:10:49.724Z,20.00
2019-06-08T05:13:19.310Z,20.00
2019-06-08T05:15:50.260Z,20.10
2019-06-08T05:18:19.895Z,20.20
2019-06-08T05:20:51.159Z,20.20
2019-06-08T05:23:20.304Z,20.30
2019-06-08T05:25:49.675Z,20.30
2019-06-08T05:28:19.052Z,20.40
2019-06-08T05:30:49.626Z,20.50
2019-06-08T05:33:19.055Z,20.60
2019-06-08T05:35:49.711Z,20.70
2019-06-08T05:38:20.860Z,20.70
2019-06-08T05:40:50.382Z,20.80
2019-06-08T05:43:21.108Z,20.90
2019-06-08T05:45:50.477Z,20.90
2019-06-08T05:48:19.821Z,21.00
2019-06-08T05:51:00.203Z,21.10
2019-06-08T05:53:20.225Z,21.20
2019-06-08T05:55:50.111Z,21.30
2019-06-08T05:58:21.038Z,21.40
2019-06-08T06:00:51.088Z,21.40
2019-06-08T06:03:20.519Z,21.50
2019-06-08T06:05:50.828Z,21.50
2019-06-08T06:08:21.592Z,21.60
2019-06-08T06:10:51.429Z,21.70
2019-06-08T06:13:20.884Z,21.80
2019-06-08T06:15:51.711Z,21.90
2019-06-08T06:18:21.241Z,21.90
2019-06-08T06:23:47.277Z,22.10
2019-06-08T06:26:16.754Z,22.10
2019-06-08T06:28:49.593Z,22.20
2019-06-08T06:31:19.478Z,22.30
2019-06-08T06:33:50.062Z,22.30
2019-06-08T06:36:19.644Z,22.40
2019-06-08T06:38:50.162Z,22.40
2019-06-08T06:41:20.708Z,22.50
2019-06-08T06:43:50.430Z,22.60
2019-06-08T06:46:19.908Z,22.70
2019-06-08T06:48:50.393Z,22.80
2019-06-08T06:51:26.059Z,22.80
2019-06-08T06:53:51.239Z,22.90
2019-06-08T06:56:20.619Z,22.90
2019-06-08T06:58:50.010Z,23.00
2019-06-08T07:01:19.533Z,23.00
2019-06-08T07:03:50.106Z,23.10
2019-06-08T07:06:19.561Z,23.20
2019-06-08T07:08:50.246Z,23.20
2019-06-08T07:11:19.730Z,23.30
2019-06-08T07:13:49.153Z,23.40
2019-06-08T07:16:19.445Z,23.40
2019-06-08T07:18:50.231Z,23.50
2019-06-08T07:21:19.687Z,23.60
2019-06-08T07:23:51.175Z,23.70
2019-06-08T07:26:20.908Z,23.70
2019-06-08T07:28:52.421Z,23.80
2019-06-08T07:31:22.975Z,24.00
2019-06-08T07:33:53.614Z,24.10
2019-06-08T07:36:23.323Z,24.10
2019-06-08T07:38:53.414Z,24.30
2019-06-08T07:41:25.595Z,24.30
2019-06-08T07:43:56.771Z,24.40
2019-06-08T07:46:26.206Z,24.40
2019-06-08T07:48:56.568Z,24.50
2019-06-08T07:51:27.097Z,24.60
2019-06-08T07:53:56.516Z,24.70
2019-06-08T07:56:25.868Z,24.80
2019-06-08T07:58:55.472Z,24.90
2019-06-08T08:01:35.835Z,25.10
2019-06-08T08:03:56.619Z,25.30
2019-06-08T08:06:26.038Z,25.50
2019-06-08T08:08:56.736Z,25.70
2019-06-08T08:11:26.285Z,25.90
2019-06-08T08:13:57.109Z,26.20
2019-06-08T08:16:26.960Z,26.40
2019-06-08T08:18:57.516Z,26.60
2019-06-08T08:21:29.416Z,26.80
2019-06-08T08:24:00.172Z,26.90
2019-06-08T08:26:31.270Z,27.10
2019-06-08T08:29:03.582Z,27.40
2019-06-08T08:31:33.081Z,27.70
2019-06-08T08:34:05.737Z,27.90
2019-06-08T08:36:33.854Z,28.10
2019-06-08T08:39:03.712Z,28.40
2019-06-08T08:41:33.170Z,28.60
2019-06-08T08:44:04.850Z,29.00
2019-06-08T08:46:42.631Z,29.20
2019-06-08T08:49:13.655Z,29.40
2019-06-08T08:51:43.142Z,29.60
2019-06-08T08:54:12.635Z,30.00
2019-06-08T08:56:42.117Z,30.30
2019-06-08T08:59:12.717Z,30.40
2019-06-08T09:01:42.788Z,30.60
2019-06-08T09:04:12.228Z,30.90
2019-06-08T09:06:41.689Z,31.00
2019-06-08T09:09:11.260Z,31.30
2019-06-08T09:11:41.201Z,31.60
2019-06-08T09:14:13.995Z,31.80
2019-06-08T09:16:43.229Z,31.70
2019-06-08T09:19:13.401Z,31.60
2019-06-08T09:21:42.876Z,31.70
2019-06-08T09:24:13.070Z,32.00
2019-06-08T09:26:42.710Z,32.10
2019-06-08T09:29:12.181Z,32.20
2019-06-08T09:31:41.635Z,32.30
2019-06-08T09:34:15.536Z,32.50
2019-06-08T09:36:47.843Z,32.70
2019-06-08T09:39:31.712Z,32.70
2019-06-08T09:42:08.800Z,32.70
2019-06-08T09:44:37.767Z,33.00
2019-06-08T09:47:12.390Z,33.30
2019-06-08T09:49:39.122Z,33.60
2019-06-08T09:52:09.068Z,33.70
2019-06-08T09:54:48.148Z,33.80
2019-06-08T09:57:19.423Z,33.80
2019-06-08T10:05:27.699Z,34.30
2019-06-08T10:08:00.545Z,34.10
2019-06-08T10:10:40.736Z,34.00
2019-06-08T10:13:18.677Z,33.80
2019-06-08T10:15:51.484Z,33.80
2019-06-08T10:21:32.594Z,33.70
2019-06-08T10:24:15.782Z,33.60
2019-06-08T10:26:47.641Z,33.60
2019-06-08T10:29:18.486Z,33.60
2019-06-08T10:31:48.331Z,33.70
2019-06-08T10:34:17.888Z,33.60
2019-06-08T10:36:47.314Z,33.70
2019-06-08T10:39:16.926Z,33.60
2019-06-08T10:41:51.254Z,33.50
2019-06-08T10:44:18.489Z,33.40
2019-06-08T10:46:48.332Z,33.60
2019-06-08T10:49:21.903Z,33.90
2019-06-08T10:51:51.309Z,34.10
2019-06-08T10:54:22.399Z,34.10
2019-06-08T10:56:54.199Z,33.90
2019-06-08T10:59:23.661Z,33.80
2019-06-08T11:01:54.072Z,34.10
2019-06-08T11:04:23.627Z,34.10
2019-06-08T11:06:53.124Z,34.10
2019-06-08T11:09:22.665Z,34.10
2019-06-08T11:14:14.676Z,33.90
2019-06-08T11:16:44.150Z,34.00
2019-06-08T11:19:14.207Z,34.30
2019-06-08T11:21:43.813Z,34.60
2019-06-08T11:24:23.801Z,34.60
2019-06-08T11:26:44.300Z,34.50
2019-06-08T11:29:18.745Z,34.60
2019-06-08T11:31:47.988Z,34.70
2019-06-08T11:34:18.606Z,34.70
2019-06-08T11:36:51.476Z,34.70
2019-06-08T11:39:19.835Z,34.70
2019-06-08T11:41:49.338Z,34.70
2019-06-08T11:44:18.789Z,34.70
2019-06-08T11:46:48.382Z,34.70
2019-06-08T11:49:18.733Z,34.50
2019-06-08T11:51:52.561Z,34.60
2019-06-08T11:54:34.468Z,34.80
2019-06-08T11:56:54.339Z,34.70
2019-06-08T11:59:24.991Z,34.60
2019-06-08T12:01:54.524Z,34.50
2019-06-08T12:04:23.938Z,34.40
2019-06-08T12:06:53.430Z,34.50
2019-06-08T12:09:23.027Z,34.30
2019-06-08T12:11:52.425Z,34.30
2019-06-08T12:14:21.808Z,34.20
2019-06-08T12:16:51.257Z,34.20
2019-06-08T12:19:21.028Z,34.20
2019-06-08T12:21:50.525Z,34.10
2019-06-08T12:24:21.350Z,34.00
2019-06-08T12:26:58.704Z,34.00
2019-06-08T12:29:28.224Z,34.20
2019-06-08T12:32:00.085Z,34.30
2019-06-08T12:34:28.266Z,34.40
2019-06-08T12:36:58.287Z,34.30
2019-06-08T12:39:28.240Z,34.40
2019-06-08T12:41:58.321Z,34.40
2019-06-08T12:44:29.147Z,34.50
2019-06-08T12:46:58.812Z,34.60
2019-06-08T12:49:28.342Z,34.60
2019-06-08T12:51:58.354Z,34.80
2019-06-08T12:54:29.368Z,35.00
2019-06-08T12:57:00.839Z,35.20
2019-06-08T12:59:30.010Z,35.30
2019-06-08T13:01:59.646Z,35.30
2019-06-08T13:10:04.753Z,35.20
2019-06-08T13:12:40.340Z,34.90
2019-06-08T13:15:08.487Z,34.90
2019-06-08T13:17:38.996Z,35.00
2019-06-08T13:20:12.435Z,35.20
2019-06-08T13:22:44.531Z,35.30
2019-06-08T13:25:28.758Z,35.40
2019-06-08T13:27:47.787Z,35.60
2019-06-08T13:30:22.504Z,35.50
2019-06-08T13:32:48.991Z,35.30
2019-06-08T13:35:20.717Z,35.30
2019-06-08T13:37:49.680Z,35.20
2019-06-08T13:40:23.242Z,35.00
2019-06-08T13:42:51.422Z,35.00
2019-06-08T13:45:23.136Z,35.20
2019-06-08T13:47:51.928Z,35.20
2019-06-08T13:50:22.795Z,35.30
2019-06-08T13:52:52.543Z,35.40
2019-06-08T13:55:42.311Z,35.50
2019-06-08T13:57:53.069Z,35.80
2019-06-08T14:00:25.561Z,36.00
2019-06-08T14:02:55.122Z,36.20
2019-06-08T14:05:31.051Z,36.20
2019-06-08T14:08:00.601Z,36.30
2019-06-08T14:10:39.100Z,36.40
2019-06-08T14:13:09.386Z,36.50
2019-06-08T14:15:38.988Z,36.50
2019-06-08T14:18:08.954Z,36.50
2019-06-08T14:20:38.896Z,36.50
2019-06-08T14:23:09.214Z,36.40
2019-06-08T14:25:50.686Z,36.40
2019-06-08T14:28:09.810Z,36.50
2019-06-08T14:30:39.336Z,36.40
2019-06-08T14:33:08.835Z,36.40
2019-06-08T14:35:38.325Z,36.40
2019-06-08T14:38:07.816Z,36.40
2019-06-08T14:40:37.553Z,36.30
2019-06-08T14:43:10.456Z,36.20
2019-06-08T14:45:38.377Z,36.10
2019-06-08T14:48:07.822Z,36.00
2019-06-08T14:50:40.346Z,35.70
2019-06-08T14:53:08.780Z,35.50
2019-06-08T14:55:38.821Z,35.40
2019-06-08T14:58:08.598Z,35.60
2019-06-08T15:00:38.461Z,35.70
2019-06-08T15:03:07.986Z,35.90
2019-06-08T15:05:37.434Z,36.00
2019-06-08T15:08:08.359Z,36.00
2019-06-08T15:10:38.515Z,36.00
2019-06-08T15:13:08.328Z,36.00
2019-06-08T15:15:38.275Z,35.80
2019-06-08T15:18:10.869Z,35.70
2019-06-08T15:20:38.892Z,35.60
2019-06-08T15:23:08.507Z,35.60
2019-06-08T15:25:38.656Z,35.60
2019-06-08T15:28:08.451Z,35.50
2019-06-08T15:30:38.821Z,35.50
2019-06-08T15:33:08.201Z,35.60
2019-06-08T15:35:37.858Z,35.40
2019-06-08T15:38:08.327Z,35.20
2019-06-08T15:40:38.998Z,35.10
2019-06-08T15:43:08.784Z,35.00
2019-06-08T15:45:38.387Z,35.10
2019-06-08T15:48:08.140Z,35.20
2019-06-08T15:50:38.790Z,35.20
2019-06-08T15:53:08.577Z,35.10
2019-06-08T15:55:38.435Z,35.00
2019-06-08T15:58:08.963Z,34.80
2019-06-08T16:00:38.711Z,34.70
2019-06-08T16:03:08.173Z,34.70
2019-06-08T16:05:38.345Z,34.80
2019-06-08T16:08:07.754Z,34.90
2019-06-08T16:10:37.115Z,35.10
2019-06-08T16:13:06.491Z,35.10
2019-06-08T16:15:35.849Z,35.00
2019-06-08T16:18:05.276Z,35.00
2019-06-08T16:20:35.776Z,35.00
2019-06-08T16:23:05.255Z,35.10
2019-06-08T16:25:38.376Z,35.10
2019-06-08T16:28:05.704Z,35.20
2019-06-08T16:30:35.135Z,35.30
2019-06-08T16:33:04.640Z,35.30
2019-06-08T16:35:34.091Z,35.30
2019-06-08T16:38:03.517Z,35.30
2019-06-08T16:40:34.252Z,35.40
2019-06-08T16:43:03.808Z,35.40
2019-06-08T16:45:33.275Z,35.40
2019-06-08T16:48:02.710Z,35.30
2019-06-08T16:50:32.284Z,35.10
2019-06-08T16:53:01.680Z,34.90
2019-06-08T16:55:32.085Z,34.70
2019-06-08T16:58:01.754Z,34.50
2019-06-08T17:00:35.275Z,34.40
2019-06-08T17:03:02.789Z,34.20
2019-06-08T17:05:33.175Z,34.10
2019-06-08T17:08:03.809Z,34.10
2019-06-08T17:10:34.549Z,34.00
2019-06-08T17:13:05.440Z,33.90
2019-06-08T17:15:36.227Z,33.70
2019-06-08T17:18:05.661Z,33.50
2019-06-08T17:20:36.305Z,33.20
2019-06-08T17:23:05.723Z,33.00
2019-06-08T17:25:36.488Z,32.80
2019-06-08T17:28:07.863Z,32.60
2019-06-08T17:30:39.368Z,32.40
2019-06-08T17:33:09.111Z,32.30
2019-06-08T17:35:39.791Z,32.30
2019-06-08T17:38:09.454Z,32.30
2019-06-08T17:40:40.046Z,32.20
2019-06-08T17:43:09.531Z,32.20
2019-06-08T17:45:39.125Z,32.10
2019-06-08T17:48:09.864Z,32.00
2019-06-08T17:50:40.807Z,31.80
2019-06-08T17:53:10.291Z,31.70
2019-06-08T17:55:39.745Z,31.50
2019-06-08T17:58:09.334Z,31.40
2019-06-08T18:00:39.497Z,31.20
2019-06-08T18:03:09.102Z,31.10
2019-06-08T18:05:42.433Z,31.00
2019-06-08T18:08:11.008Z,30.80
2019-06-08T18:10:41.804Z,30.70
2019-06-08T18:13:11.548Z,30.60
2019-06-08T18:15:43.099Z,30.50
2019-06-08T18:18:12.318Z,30.30
2019-06-08T18:20:42.435Z,30.10
2019-06-08T18:23:12.900Z,29.90
2019-06-08T18:25:43.432Z,29.70
2019-06-08T18:28:13.693Z,29.60
2019-06-08T18:30:44.761Z,29.40
2019-06-08T18:33:14.317Z,29.30
2019-06-08T18:35:44.887Z,29.10
2019-06-08T18:38:17.926Z,29.00
2019-06-08T18:40:48.340Z,28.70
2019-06-08T18:43:17.964Z,28.60
2019-06-08T18:45:49.597Z,28.40
2019-06-08T18:48:19.038Z,28.30
2019-06-08T18:50:49.130Z,28.10
2019-06-08T18:53:19.074Z,28.00
2019-06-08T18:55:50.346Z,27.80
2019-06-08T18:58:24.794Z,27.70
2019-06-08T19:00:51.581Z,27.60
2019-06-08T19:03:21.218Z,27.40
2019-06-08T19:05:52.154Z,27.20
2019-06-08T19:08:22.059Z,27.10
2019-06-08T19:10:51.451Z,27.00
2019-06-08T19:13:22.083Z,26.90
2019-06-08T19:15:53.004Z,26.70
2019-06-08T19:18:22.556Z,26.60
2019-06-08T19:20:53.586Z,26.40
2019-06-08T19:23:23.144Z,26.40
2019-06-08T19:25:52.583Z,26.20
2019-06-08T19:28:35.330Z,26.10
2019-06-08T19:30:54.175Z,26.00
2019-06-08T19:33:23.603Z,25.80
2019-06-08T19:35:54.154Z,25.70
2019-06-08T19:38:23.763Z,25.60
2019-06-08T19:40:53.171Z,25.50
2019-06-08T19:43:22.508Z,25.40
2019-06-08T19:45:52.204Z,25.30
2019-06-08T19:48:21.712Z,25.30
2019-06-08T19:50:54.214Z,25.20
2019-06-08T19:53:22.710Z,25.10
2019-06-08T19:55:53.907Z,25.00
2019-06-08T19:58:23.163Z,24.90
2019-06-08T20:00:54.841Z,24.90
2019-06-08T20:03:24.098Z,24.80
2019-06-08T20:05:53.645Z,24.70
2019-06-08T20:08:23.098Z,24.70
2019-06-08T20:10:53.606Z,24.60
2019-06-08T20:13:24.274Z,24.50
2019-06-08T20:15:58.347Z,24.40
2019-06-08T20:18:27.787Z,24.40
2019-06-08T20:20:58.597Z,24.30
2019-06-08T20:23:27.649Z,24.30
2019-06-08T20:26:00.420Z,24.30
2019-06-08T20:28:28.413Z,24.20
2019-06-08T20:31:00.030Z,24.10
2019-06-08T20:33:29.443Z,24.10
2019-06-08T20:35:58.864Z,24.10
2019-06-08T20:38:37.266Z,24.00
2019-06-08T20:41:00.238Z,24.00
2019-06-08T20:43:29.659Z,24.00
2019-06-08T20:45:59.093Z,23.90
2019-06-08T20:48:28.467Z,24.00
2019-06-08T20:50:57.833Z,24.00
2019-06-08T20:53:28.722Z,24.00
2019-06-08T20:55:58.132Z,23.90
2019-06-08T20:58:30.139Z,23.90
2019-06-08T21:00:59.524Z,23.90
2019-06-08T21:03:29.674Z,23.80
2019-06-08T21:06:00.329Z,23.80
2019-06-08T21:08:37.175Z,23.70
2019-06-08T21:11:08.502Z,23.70
2019-06-08T21:13:40.862Z,23.60
2019-06-08T21:16:11.391Z,23.50
2019-06-08T21:18:40.744Z,23.50
2019-06-08T21:21:10.122Z,23.40
2019-06-08T21:23:39.466Z,23.40
2019-06-08T21:26:08.829Z,23.30
2019-06-08T21:28:39.928Z,23.30
2019-06-08T21:31:09.266Z,23.20
2019-06-08T21:33:42.435Z,23.10
2019-06-08T21:36:11.784Z,23.10
2019-06-08T21:38:41.145Z,23.00
2019-06-08T21:41:13.553Z,23.00
2019-06-08T21:43:42.975Z,23.00
2019-06-08T21:46:12.418Z,22.80
2019-06-08T21:48:41.860Z,22.80
2019-06-08T21:51:11.211Z,22.80
2019-06-08T21:53:40.688Z,22.70
2019-06-08T21:56:10.036Z,22.70
2019-06-08T21:58:40.869Z,22.70
2019-06-08T22:01:13.055Z,22.60
2019-06-08T22:03:42.507Z,22.60
2019-06-08T22:06:11.995Z,22.50
2019-06-08T22:08:41.467Z,22.50
2019-06-08T22:11:12.738Z,22.50
2019-06-08T22:13:42.138Z,22.50
2019-06-08T22:16:11.665Z,22.50
2019-06-08T22:18:41.073Z,22.40
2019-06-08T22:21:11.783Z,22.40
2019-06-08T22:23:41.198Z,22.40
2019-06-08T22:26:10.560Z,22.40
2019-06-08T22:28:39.912Z,22.40
2019-06-08T22:31:11.758Z,22.40
2019-06-08T22:33:41.106Z,22.40
2019-06-08T22:36:10.556Z,22.40
2019-06-08T22:38:39.982Z,22.30
2019-06-08T22:41:09.444Z,22.30
2019-06-08T22:43:38.911Z,22.30
2019-06-08T22:46:09.731Z,22.30
2019-06-08T22:48:39.065Z,22.30
2019-06-08T22:51:08.432Z,22.30
2019-06-08T22:53:38.410Z,22.30
2019-06-08T22:56:09.603Z,22.20
2019-06-08T22:58:39.085Z,22.20
2019-06-08T23:01:11.445Z,22.20
2019-06-08T23:03:39.510Z,22.20
2019-06-08T23:06:09.037Z,22.20
2019-06-08T23:08:38.475Z,22.20
2019-06-08T23:11:08.660Z,22.10
2019-06-08T23:13:39.463Z,22.10
2019-06-08T23:16:10.361Z,22.20
2019-06-08T23:18:39.795Z,22.10
2019-06-08T23:21:09.253Z,22.10
2019-06-08T23:23:38.771Z,22.10
2019-06-08T23:26:10.458Z,22.10
2019-06-08T23:28:39.261Z,22.10
2019-06-08T23:31:19.721Z,22.00
2019-06-08T23:33:40.302Z,22.00
2019-06-08T23:36:39.214Z,22.00
2019-06-08T23:38:40.804Z,22.00
2019-06-08T23:41:10.225Z,22.00
2019-06-08T23:43:39.649Z,22.00
2019-06-08T23:46:09.066Z,22.00
2019-06-08T23:48:38.550Z,21.90
2019-06-08T23:51:10.850Z,21.90
2019-06-08T23:53:38.998Z,21.90
2019-06-08T23:56:11.761Z,22.00
2019-06-08T23:58:42.412Z,21.90
